sensor_id;sensor_type;location;lat;lon;timestamp;pressure;altitude;pressure_sealevel;temperature;humidity
8140;BME280;4111;50.972;7.072;2023-03-14T00:00:11;98727.19;;;12.57;80.54
8140;BME280;4111;50.972;7.072;2023-03-14T00:02:39;98714.06;;;12.59;80.41
8140;BME280;4111;50.972;7.072;2023-03-14T00:05:07;98708.63;;;12.59;80.09
8140;BME280;4111;50.972;7.072;2023-03-14T00:07:36;98710.34;;;12.55;80.01
8140;BME280;4111;50.972;7.072;2023-03-14T00:10:11;98708.63;;;12.59;79.78
8140;BME280;4111;50.972;7.072;2023-03-14T00:12:38;98718.25;;;12.65;79.63
8140;BME280;4111;50.972;7.072;2023-03-14T00:15:05;98725.63;;;12.64;79.62
8140;BME280;4111;50.972;7.072;2023-03-14T00:17:34;98752.06;;;12.64;79.46
8140;BME280;4111;50.972;7.072;2023-03-14T00:20:01;98770.28;;;12.63;79.56
8140;BME280;4111;50.972;7.072;2023-03-14T00:22:35;98778.78;;;12.62;79.72
8140;BME280;4111;50.972;7.072;2023-03-14T00:25:03;98770.50;;;12.67;79.49
8140;BME280;4111;50.972;7.072;2023-03-14T00:27:30;98768.41;;;12.64;79.37
8140;BME280;4111;50.972;7.072;2023-03-14T00:29:57;98771.13;;;12.64;79.42
8140;BME280;4111;50.972;7.072;2023-03-14T00:32:24;98770.28;;;12.63;79.51
8140;BME280;4111;50.972;7.072;2023-03-14T00:34:51;98762.13;;;12.63;79.30
8140;BME280;4111;50.972;7.072;2023-03-14T00:37:17;98753.78;;;12.60;79.48
8140;BME280;4111;50.972;7.072;2023-03-14T00:39:43;98746.03;;;12.53;79.52
8140;BME280;4111;50.972;7.072;2023-03-14T00:42:10;98744.00;;;12.59;79.66
8140;BME280;4111;50.972;7.072;2023-03-14T00:44:36;98758.13;;;12.61;79.52
8140;BME280;4111;50.972;7.072;2023-03-14T00:47:03;98752.19;;;12.59;79.45
8140;BME280;4111;50.972;7.072;2023-03-14T00:49:29;98734.22;;;12.58;79.41
8140;BME280;4111;50.972;7.072;2023-03-14T00:51:56;98732.44;;;12.53;79.77
8140;BME280;4111;50.972;7.072;2023-03-14T00:54:22;98745.09;;;12.58;79.61
8140;BME280;4111;50.972;7.072;2023-03-14T00:56:49;98735.03;;;12.58;79.71
8140;BME280;4111;50.972;7.072;2023-03-14T00:59:15;98751.38;;;12.58;79.44
8140;BME280;4111;50.972;7.072;2023-03-14T01:01:42;98731.38;;;12.63;79.34
8140;BME280;4111;50.972;7.072;2023-03-14T01:04:09;98744.50;;;12.61;79.47
8140;BME280;4111;50.972;7.072;2023-03-14T01:06:36;98740.84;;;12.65;79.15
8140;BME280;4111;50.972;7.072;2023-03-14T01:09:02;98726.13;;;12.66;78.96
8140;BME280;4111;50.972;7.072;2023-03-14T01:11:34;98736.56;;;12.73;79.03
8140;BME280;4111;50.972;7.072;2023-03-14T01:14:02;98732.75;;;12.74;78.95
8140;BME280;4111;50.972;7.072;2023-03-14T01:16:32;98738.19;;;12.74;78.91
8140;BME280;4111;50.972;7.072;2023-03-14T01:18:58;98737.06;;;12.75;79.13
8140;BME280;4111;50.972;7.072;2023-03-14T01:21:28;98748.94;;;12.79;78.75
8140;BME280;4111;50.972;7.072;2023-03-14T01:23:56;98750.06;;;12.78;78.79
8140;BME280;4111;50.972;7.072;2023-03-14T01:26:25;98761.28;;;12.77;79.41
8140;BME280;4111;50.972;7.072;2023-03-14T01:28:54;98788.81;;;12.75;79.82
8140;BME280;4111;50.972;7.072;2023-03-14T01:31:21;98793.50;;;12.61;81.64
8140;BME280;4111;50.972;7.072;2023-03-14T01:33:47;98776.31;;;12.38;85.33
8140;BME280;4111;50.972;7.072;2023-03-14T01:36:14;98763.97;;;12.18;87.12
8140;BME280;4111;50.972;7.072;2023-03-14T01:38:41;98766.81;;;12.13;87.69
8140;BME280;4111;50.972;7.072;2023-03-14T01:41:13;98774.59;;;12.05;88.15
8140;BME280;4111;50.972;7.072;2023-03-14T01:43:39;98763.94;;;11.95;88.98
8140;BME280;4111;50.972;7.072;2023-03-14T01:48:40;98749.81;;;11.79;90.64
8140;BME280;4111;50.972;7.072;2023-03-14T01:51:11;98756.56;;;11.68;91.11
8140;BME280;4111;50.972;7.072;2023-03-14T01:53:40;98748.91;;;11.70;91.71
8140;BME280;4111;50.972;7.072;2023-03-14T01:56:10;98736.41;;;11.55;92.15
8140;BME280;4111;50.972;7.072;2023-03-14T01:58:40;98765.00;;;11.39;93.10
8140;BME280;4111;50.972;7.072;2023-03-14T02:01:08;98755.44;;;11.41;93.75
8140;BME280;4111;50.972;7.072;2023-03-14T02:03:39;98750.19;;;11.31;94.06
8140;BME280;4111;50.972;7.072;2023-03-14T02:06:12;98731.78;;;11.28;94.61
8140;BME280;4111;50.972;7.072;2023-03-14T02:08:40;98728.06;;;11.24;94.67
8140;BME280;4111;50.972;7.072;2023-03-14T02:11:07;98727.13;;;11.15;94.77
8140;BME280;4111;50.972;7.072;2023-03-14T02:13:34;98743.22;;;11.11;95.08
8140;BME280;4111;50.972;7.072;2023-03-14T02:16:01;98734.50;;;11.14;95.59
8140;BME280;4111;50.972;7.072;2023-03-14T02:18:27;98734.78;;;11.13;95.64
8140;BME280;4111;50.972;7.072;2023-03-14T02:21:00;98737.78;;;11.11;95.41
8140;BME280;4111;50.972;7.072;2023-03-14T02:23:51;98742.59;;;11.00;95.28
8140;BME280;4111;50.972;7.072;2023-03-14T02:26:27;98736.97;;;10.97;95.63
8140;BME280;4111;50.972;7.072;2023-03-14T02:28:54;98742.56;;;10.86;95.86
8140;BME280;4111;50.972;7.072;2023-03-14T02:31:21;98736.94;;;10.83;96.31
8140;BME280;4111;50.972;7.072;2023-03-14T02:33:49;98737.16;;;10.86;96.25
8140;BME280;4111;50.972;7.072;2023-03-14T02:36:17;98730.09;;;10.85;96.26
8140;BME280;4111;50.972;7.072;2023-03-14T02:38:53;98730.09;;;10.85;96.80
8140;BME280;4111;50.972;7.072;2023-03-14T02:41:21;98715.44;;;10.86;96.31
8140;BME280;4111;50.972;7.072;2023-03-14T02:43:48;98711.38;;;10.84;96.74
8140;BME280;4111;50.972;7.072;2023-03-14T02:46:18;98714.31;;;10.87;96.83
8140;BME280;4111;50.972;7.072;2023-03-14T02:48:53;98708.00;;;10.92;97.01
8140;BME280;4111;50.972;7.072;2023-03-14T02:51:22;98705.47;;;10.96;97.19
8140;BME280;4111;50.972;7.072;2023-03-14T02:53:50;98706.97;;;10.88;98.26
8140;BME280;4111;50.972;7.072;2023-03-14T02:56:16;98700.94;;;10.91;97.92
8140;BME280;4111;50.972;7.072;2023-03-14T02:58:43;98704.66;;;10.95;98.27
8140;BME280;4111;50.972;7.072;2023-03-14T03:01:09;98708.97;;;10.82;98.42
8140;BME280;4111;50.972;7.072;2023-03-14T03:03:36;98692.09;;;10.85;98.60
8140;BME280;4111;50.972;7.072;2023-03-14T03:06:02;98694.91;;;10.80;98.94
8140;BME280;4111;50.972;7.072;2023-03-14T03:08:29;98687.63;;;10.76;98.87
8140;BME280;4111;50.972;7.072;2023-03-14T03:10:57;98677.38;;;10.73;99.31
8140;BME280;4111;50.972;7.072;2023-03-14T03:13:24;98686.84;;;10.75;99.82
8140;BME280;4111;50.972;7.072;2023-03-14T03:15:51;98684.81;;;10.67;100.00
8140;BME280;4111;50.972;7.072;2023-03-14T03:18:17;98681.16;;;10.58;100.00
8140;BME280;4111;50.972;7.072;2023-03-14T03:20:44;98679.47;;;10.62;100.00
8140;BME280;4111;50.972;7.072;2023-03-14T03:23:10;98673.00;;;10.58;100.00
8140;BME280;4111;50.972;7.072;2023-03-14T03:25:37;98670.53;;;10.61;100.00
8140;BME280;4111;50.972;7.072;2023-03-14T03:28:04;98665.31;;;10.65;100.00
8140;BME280;4111;50.972;7.072;2023-03-14T03:30:40;98657.56;;;10.72;100.00
8140;BME280;4111;50.972;7.072;2023-03-14T03:33:07;98661.28;;;10.76;100.00
8140;BME280;4111;50.972;7.072;2023-03-14T03:35:33;98660.13;;;10.82;99.98
8140;BME280;4111;50.972;7.072;2023-03-14T03:38:00;98663.41;;;10.79;99.52
8140;BME280;4111;50.972;7.072;2023-03-14T03:40:26;98664.66;;;10.87;99.13
8140;BME280;4111;50.972;7.072;2023-03-14T03:42:53;98662.34;;;10.80;99.33
8140;BME280;4111;50.972;7.072;2023-03-14T03:45:19;98658.50;;;10.81;99.20
8140;BME280;4111;50.972;7.072;2023-03-14T03:47:45;98649.94;;;10.74;99.38
8140;BME280;4111;50.972;7.072;2023-03-14T03:50:12;98650.44;;;10.76;99.46
8140;BME280;4111;50.972;7.072;2023-03-14T03:52:38;98651.66;;;10.84;99.49
8140;BME280;4111;50.972;7.072;2023-03-14T03:55:05;98653.50;;;10.88;99.29
8140;BME280;4111;50.972;7.072;2023-03-14T03:57:31;98650.56;;;10.85;98.87
8140;BME280;4111;50.972;7.072;2023-03-14T03:59:58;98659.44;;;10.90;98.50
8140;BME280;4111;50.972;7.072;2023-03-14T04:02:24;98657.72;;;10.95;98.39
8140;BME280;4111;50.972;7.072;2023-03-14T04:04:51;98654.06;;;10.85;98.55
8140;BME280;4111;50.972;7.072;2023-03-14T04:07:17;98657.81;;;10.89;98.17
8140;BME280;4111;50.972;7.072;2023-03-14T04:09:44;98653.00;;;10.86;98.44
8140;BME280;4111;50.972;7.072;2023-03-14T04:12:10;98650.16;;;10.91;98.26
8140;BME280;4111;50.972;7.072;2023-03-14T04:14:37;98650.06;;;10.97;98.53
8140;BME280;4111;50.972;7.072;2023-03-14T04:17:03;98654.38;;;10.98;98.23
8140;BME280;4111;50.972;7.072;2023-03-14T04:19:30;98653.88;;;10.96;98.17
8140;BME280;4111;50.972;7.072;2023-03-14T04:21:57;98653.50;;;10.88;98.29
8140;BME280;4111;50.972;7.072;2023-03-14T04:24:23;98643.84;;;10.82;98.34
8140;BME280;4111;50.972;7.072;2023-03-14T04:26:49;98633.56;;;10.79;98.76
8140;BME280;4111;50.972;7.072;2023-03-14T04:29:16;98631.28;;;10.86;98.77
8140;BME280;4111;50.972;7.072;2023-03-14T04:31:42;98634.00;;;10.86;98.64
8140;BME280;4111;50.972;7.072;2023-03-14T04:34:09;98631.34;;;10.81;98.61
8140;BME280;4111;50.972;7.072;2023-03-14T04:36:35;98628.13;;;10.79;98.82
8140;BME280;4111;50.972;7.072;2023-03-14T04:39:05;98626.63;;;10.73;99.08
8140;BME280;4111;50.972;7.072;2023-03-14T04:41:31;98616.84;;;10.72;99.45
8140;BME280;4111;50.972;7.072;2023-03-14T04:43:58;98623.28;;;10.76;99.53
8140;BME280;4111;50.972;7.072;2023-03-14T04:46:24;98624.50;;;10.84;99.17
8140;BME280;4111;50.972;7.072;2023-03-14T04:48:51;98618.78;;;10.85;99.17
8140;BME280;4111;50.972;7.072;2023-03-14T04:51:17;98608.72;;;10.86;99.37
8140;BME280;4111;50.972;7.072;2023-03-14T04:53:44;98614.66;;;10.88;99.33
8140;BME280;4111;50.972;7.072;2023-03-14T04:56:10;98608.56;;;10.82;99.79
8140;BME280;4111;50.972;7.072;2023-03-14T04:58:39;98602.63;;;10.80;100.00
8140;BME280;4111;50.972;7.072;2023-03-14T05:01:06;98598.38;;;10.88;100.00
8140;BME280;4111;50.972;7.072;2023-03-14T05:03:33;98591.94;;;10.84;100.00
8140;BME280;4111;50.972;7.072;2023-03-14T05:05:59;98597.06;;;10.85;100.00
8140;BME280;4111;50.972;7.072;2023-03-14T05:08:27;98586.31;;;10.80;100.00
8140;BME280;4111;50.972;7.072;2023-03-14T05:10:55;98584.50;;;10.76;100.00
8140;BME280;4111;50.972;7.072;2023-03-14T05:13:22;98583.19;;;10.73;100.00
8140;BME280;4111;50.972;7.072;2023-03-14T05:15:49;98577.69;;;10.78;100.00
8140;BME280;4111;50.972;7.072;2023-03-14T05:18:17;98568.00;;;10.86;100.00
8140;BME280;4111;50.972;7.072;2023-03-14T05:20:43;98572.06;;;10.88;100.00
8140;BME280;4111;50.972;7.072;2023-03-14T05:23:10;98570.44;;;10.87;100.00
8140;BME280;4111;50.972;7.072;2023-03-14T05:25:36;98570.44;;;10.87;100.00
8140;BME280;4111;50.972;7.072;2023-03-14T05:28:03;98570.03;;;10.80;100.00
8140;BME280;4111;50.972;7.072;2023-03-14T05:30:29;98564.19;;;10.73;100.00
8140;BME280;4111;50.972;7.072;2023-03-14T05:32:57;98569.00;;;10.76;100.00
8140;BME280;4111;50.972;7.072;2023-03-14T05:35:23;98565.19;;;10.77;100.00
8140;BME280;4111;50.972;7.072;2023-03-14T05:37:50;98563.50;;;10.81;100.00
8140;BME280;4111;50.972;7.072;2023-03-14T05:40:16;98559.47;;;10.79;100.00
8140;BME280;4111;50.972;7.072;2023-03-14T05:42:42;98571.22;;;10.88;100.00
8140;BME280;4111;50.972;7.072;2023-03-14T05:45:09;98566.63;;;10.88;100.00
8140;BME280;4111;50.972;7.072;2023-03-14T05:47:36;98568.22;;;10.89;99.94
8140;BME280;4111;50.972;7.072;2023-03-14T05:50:03;98564.91;;;10.93;99.50
8140;BME280;4111;50.972;7.072;2023-03-14T05:52:30;98565.41;;;10.95;99.08
8140;BME280;4111;50.972;7.072;2023-03-14T05:54:56;98558.97;;;10.90;98.38
8140;BME280;4111;50.972;7.072;2023-03-14T05:57:22;98549.72;;;10.91;97.84
8140;BME280;4111;50.972;7.072;2023-03-14T05:59:49;98551.34;;;10.93;97.42
8140;BME280;4111;50.972;7.072;2023-03-14T06:02:15;98556.75;;;10.93;96.85
8140;BME280;4111;50.972;7.072;2023-03-14T06:04:42;98559.47;;;10.93;96.64
8140;BME280;4111;50.972;7.072;2023-03-14T06:07:08;98563.19;;;10.97;96.29
8140;BME280;4111;50.972;7.072;2023-03-14T06:09:35;98564.50;;;10.99;95.80
8140;BME280;4111;50.972;7.072;2023-03-14T06:12:01;98567.22;;;10.99;95.92
8140;BME280;4111;50.972;7.072;2023-03-14T06:14:28;98554.94;;;11.02;95.70
8140;BME280;4111;50.972;7.072;2023-03-14T06:16:54;98560.34;;;11.02;95.90
8140;BME280;4111;50.972;7.072;2023-03-14T06:19:20;98548.41;;;11.03;95.28
8140;BME280;4111;50.972;7.072;2023-03-14T06:21:47;98539.16;;;11.04;96.14
8140;BME280;4111;50.972;7.072;2023-03-14T06:24:13;98548.59;;;11.20;96.61
8140;BME280;4111;50.972;7.072;2023-03-14T06:26:40;98542.59;;;11.46;96.77
8140;BME280;4111;50.972;7.072;2023-03-14T06:29:06;98545.09;;;11.56;95.84
8140;BME280;4111;50.972;7.072;2023-03-14T06:31:33;98544.19;;;11.47;95.01
8140;BME280;4111;50.972;7.072;2023-03-14T06:33:59;98549.25;;;11.40;94.81
8140;BME280;4111;50.972;7.072;2023-03-14T06:36:25;98550.09;;;11.26;94.72
8140;BME280;4111;50.972;7.072;2023-03-14T06:38:52;98550.09;;;11.26;95.17
8140;BME280;4111;50.972;7.072;2023-03-14T06:41:18;98558.94;;;11.32;95.35
8140;BME280;4111;50.972;7.072;2023-03-14T06:43:45;98554.28;;;11.32;95.03
8140;BME280;4111;50.972;7.072;2023-03-14T06:46:11;98556.50;;;11.30;95.81
8140;BME280;4111;50.972;7.072;2023-03-14T06:48:38;98557.72;;;11.24;95.10
8140;BME280;4111;50.972;7.072;2023-03-14T06:51:04;98557.09;;;11.27;95.36
8140;BME280;4111;50.972;7.072;2023-03-14T06:53:31;98558.72;;;11.28;95.24
8140;BME280;4111;50.972;7.072;2023-03-14T06:55:57;98556.00;;;11.28;95.36
8140;BME280;4111;50.972;7.072;2023-03-14T06:58:24;98558.22;;;11.26;95.30
8140;BME280;4111;50.972;7.072;2023-03-14T07:00:52;98557.41;;;11.40;95.06
8140;BME280;4111;50.972;7.072;2023-03-14T07:03:19;98559.50;;;11.43;94.84
8140;BME280;4111;50.972;7.072;2023-03-14T07:05:45;98558.50;;;11.39;94.42
8140;BME280;4111;50.972;7.072;2023-03-14T07:08:11;98560.94;;;11.40;94.35
8140;BME280;4111;50.972;7.072;2023-03-14T07:10:38;98570.38;;;11.43;94.09
8140;BME280;4111;50.972;7.072;2023-03-14T07:13:04;98559.31;;;11.39;93.97
8140;BME280;4111;50.972;7.072;2023-03-14T07:15:31;98561.13;;;11.44;93.44
8140;BME280;4111;50.972;7.072;2023-03-14T07:17:57;98566.13;;;11.50;93.44
8140;BME280;4111;50.972;7.072;2023-03-14T07:20:24;98568.75;;;11.56;92.92
8140;BME280;4111;50.972;7.072;2023-03-14T07:22:50;98572.25;;;11.56;92.82
8140;BME280;4111;50.972;7.072;2023-03-14T07:25:17;98572.31;;;11.65;92.87
8140;BME280;4111;50.972;7.072;2023-03-14T07:27:44;98574.75;;;11.66;92.55
8140;BME280;4111;50.972;7.072;2023-03-14T07:30:12;98588.63;;;11.65;92.40
8140;BME280;4111;50.972;7.072;2023-03-14T07:32:38;98576.97;;;11.64;92.33
8140;BME280;4111;50.972;7.072;2023-03-14T07:35:06;98588.81;;;11.68;92.24
8140;BME280;4111;50.972;7.072;2023-03-14T07:37:32;98584.38;;;11.73;92.33
8140;BME280;4111;50.972;7.072;2023-03-14T07:39:59;98587.00;;;11.78;92.56
8140;BME280;4111;50.972;7.072;2023-03-14T07:42:25;98591.78;;;11.81;92.36
8140;BME280;4111;50.972;7.072;2023-03-14T07:44:51;98585.38;;;11.77;92.08
8140;BME280;4111;50.972;7.072;2023-03-14T07:47:18;98587.38;;;11.85;92.16
8140;BME280;4111;50.972;7.072;2023-03-14T07:49:46;98597.06;;;11.91;92.01
8140;BME280;4111;50.972;7.072;2023-03-14T07:52:12;98594.41;;;11.86;91.96
8140;BME280;4111;50.972;7.072;2023-03-14T07:54:38;98591.47;;;11.96;91.89
8140;BME280;4111;50.972;7.072;2023-03-14T07:57:05;98591.38;;;12.01;91.68
8140;BME280;4111;50.972;7.072;2023-03-14T07:59:31;98601.13;;;12.02;91.93
8140;BME280;4111;50.972;7.072;2023-03-14T08:01:58;98594.88;;;12.02;91.56
8140;BME280;4111;50.972;7.072;2023-03-14T08:04:25;98607.25;;;12.08;91.51
8140;BME280;4111;50.972;7.072;2023-03-14T08:06:51;98608.22;;;12.12;91.75
8140;BME280;4111;50.972;7.072;2023-03-14T08:09:17;98596.13;;;12.18;91.32
8140;BME280;4111;50.972;7.072;2023-03-14T08:11:44;98602.22;;;12.24;91.17
8140;BME280;4111;50.972;7.072;2023-03-14T08:14:10;98604.16;;;12.23;91.37
8140;BME280;4111;50.972;7.072;2023-03-14T08:16:37;98604.34;;;12.27;91.44
8140;BME280;4111;50.972;7.072;2023-03-14T08:19:03;98611.56;;;12.32;90.95
8140;BME280;4111;50.972;7.072;2023-03-14T08:21:30;98612.06;;;12.34;90.87
8140;BME280;4111;50.972;7.072;2023-03-14T08:23:56;98618.19;;;12.39;90.79
8140;BME280;4111;50.972;7.072;2023-03-14T08:26:23;98613.88;;;12.38;90.98
8140;BME280;4111;50.972;7.072;2023-03-14T08:28:49;98617.56;;;12.42;91.36
8140;BME280;4111;50.972;7.072;2023-03-14T08:31:15;98619.06;;;12.48;91.22
8140;BME280;4111;50.972;7.072;2023-03-14T08:33:42;98612.81;;;12.48;91.82
8140;BME280;4111;50.972;7.072;2023-03-14T08:36:09;98619.53;;;12.50;92.07
8140;BME280;4111;50.972;7.072;2023-03-14T08:38:36;98630.06;;;12.43;92.38
8140;BME280;4111;50.972;7.072;2023-03-14T08:41:02;98620.78;;;12.44;92.90
8140;BME280;4111;50.972;7.072;2023-03-14T08:43:30;98620.16;;;12.47;93.10
8140;BME280;4111;50.972;7.072;2023-03-14T08:45:58;98623.19;;;12.46;93.21
8140;BME280;4111;50.972;7.072;2023-03-14T08:48:24;98623.38;;;12.49;92.79
8140;BME280;4111;50.972;7.072;2023-03-14T08:50:51;98627.53;;;12.47;93.22
8140;BME280;4111;50.972;7.072;2023-03-14T08:53:34;98626.22;;;12.44;93.64
8140;BME280;4111;50.972;7.072;2023-03-14T08:56:01;98636.78;;;12.46;94.04
8140;BME280;4111;50.972;7.072;2023-03-14T08:58:27;98617.44;;;12.47;94.11
8140;BME280;4111;50.972;7.072;2023-03-14T09:00:55;98619.97;;;12.44;93.57
8140;BME280;4111;50.972;7.072;2023-03-14T09:03:22;98624.63;;;12.43;93.29
8140;BME280;4111;50.972;7.072;2023-03-14T09:05:50;98631.69;;;12.44;93.57
8140;BME280;4111;50.972;7.072;2023-03-14T09:08:17;98636.28;;;12.44;93.98
8140;BME280;4111;50.972;7.072;2023-03-14T09:10:44;98645.69;;;12.38;94.79
8140;BME280;4111;50.972;7.072;2023-03-14T09:13:10;98653.31;;;12.27;96.01
8140;BME280;4111;50.972;7.072;2023-03-14T09:15:50;98679.16;;;12.16;97.75
8140;BME280;4111;50.972;7.072;2023-03-14T09:18:17;98672.53;;;12.08;99.44
8140;BME280;4111;50.972;7.072;2023-03-14T09:20:43;98679.63;;;11.95;100.00
8140;BME280;4111;50.972;7.072;2023-03-14T09:23:09;98677.00;;;11.90;100.00
8140;BME280;4111;50.972;7.072;2023-03-14T09:25:36;98675.41;;;11.89;100.00
8140;BME280;4111;50.972;7.072;2023-03-14T09:28:02;98680.84;;;11.89;100.00
8140;BME280;4111;50.972;7.072;2023-03-14T09:30:29;98695.50;;;11.88;100.00
8140;BME280;4111;50.972;7.072;2023-03-14T09:32:55;98683.44;;;11.80;100.00
8140;BME280;4111;50.972;7.072;2023-03-14T09:35:23;98685.97;;;11.77;100.00
8140;BME280;4111;50.972;7.072;2023-03-14T09:37:49;98690.31;;;11.78;100.00
8140;BME280;4111;50.972;7.072;2023-03-14T09:40:17;98695.13;;;11.81;100.00
8140;BME280;4111;50.972;7.072;2023-03-14T09:42:44;98697.84;;;11.81;100.00
8140;BME280;4111;50.972;7.072;2023-03-14T09:45:23;98754.13;;;11.80;100.00
8140;BME280;4111;50.972;7.072;2023-03-14T09:47:51;98772.06;;;11.67;100.00
8140;BME280;4111;50.972;7.072;2023-03-14T09:50:27;98787.13;;;11.32;100.00
8140;BME280;4111;50.972;7.072;2023-03-14T09:53:00;98800.66;;;10.85;99.22
8140;BME280;4111;50.972;7.072;2023-03-14T09:55:28;98801.34;;;10.77;99.61
8140;BME280;4111;50.972;7.072;2023-03-14T09:57:59;98824.91;;;10.63;100.00
8140;BME280;4111;50.972;7.072;2023-03-14T10:00:28;98845.44;;;10.31;99.78
8140;BME280;4111;50.972;7.072;2023-03-14T10:03:14;98859.16;;;10.16;99.05
8140;BME280;4111;50.972;7.072;2023-03-14T10:05:46;98866.94;;;9.98;99.31
8140;BME280;4111;50.972;7.072;2023-03-14T10:08:13;98877.13;;;9.82;100.00
8140;BME280;4111;50.972;7.072;2023-03-14T10:10:40;98898.06;;;9.77;100.00
8140;BME280;4111;50.972;7.072;2023-03-14T10:13:16;98899.97;;;9.76;100.00
8140;BME280;4111;50.972;7.072;2023-03-14T10:15:51;98902.41;;;9.78;100.00
8140;BME280;4111;50.972;7.072;2023-03-14T10:18:18;98925.50;;;9.70;100.00
8140;BME280;4111;50.972;7.072;2023-03-14T10:20:47;98931.44;;;9.72;100.00
8140;BME280;4111;50.972;7.072;2023-03-14T10:25:45;98944.56;;;9.60;100.00
8140;BME280;4111;50.972;7.072;2023-03-14T10:28:30;98961.88;;;9.64;100.00
8140;BME280;4111;50.972;7.072;2023-03-14T10:30:58;98959.16;;;9.64;100.00
8140;BME280;4111;50.972;7.072;2023-03-14T10:33:27;98983.53;;;9.64;100.00
8140;BME280;4111;50.972;7.072;2023-03-14T10:35:56;98993.88;;;9.57;100.00
8140;BME280;4111;50.972;7.072;2023-03-14T10:38:29;99002.81;;;9.57;100.00
8140;BME280;4111;50.972;7.072;2023-03-14T10:40:57;99000.19;;;9.47;100.00
8140;BME280;4111;50.972;7.072;2023-03-14T10:43:33;99025.25;;;9.28;100.00
8140;BME280;4111;50.972;7.072;2023-03-14T10:46:15;99029.94;;;9.12;100.00
8140;BME280;4111;50.972;7.072;2023-03-14T10:48:43;99034.56;;;9.07;100.00
8140;BME280;4111;50.972;7.072;2023-03-14T10:51:29;99049.44;;;9.09;100.00
8140;BME280;4111;50.972;7.072;2023-03-14T10:54:01;99056.69;;;9.19;100.00
8140;BME280;4111;50.972;7.072;2023-03-14T10:56:34;99063.75;;;9.20;100.00
8140;BME280;4111;50.972;7.072;2023-03-14T10:59:04;99065.59;;;9.25;100.00
8140;BME280;4111;50.972;7.072;2023-03-14T11:01:55;99066.94;;;9.27;100.00
8140;BME280;4111;50.972;7.072;2023-03-14T11:07:28;99092.94;;;9.28;100.00
8140;BME280;4111;50.972;7.072;2023-03-14T11:13:12;99090.22;;;9.28;100.00
8140;BME280;4111;50.972;7.072;2023-03-14T11:18:49;99098.84;;;9.41;100.00
8140;BME280;4111;50.972;7.072;2023-03-14T11:29:46;99117.91;;;10.09;100.00
8140;BME280;4111;50.972;7.072;2023-03-14T11:32:17;99117.22;;;10.23;100.00
8140;BME280;4111;50.972;7.072;2023-03-14T11:34:50;99139.88;;;10.42;100.00
8140;BME280;4111;50.972;7.072;2023-03-14T11:37:25;99132.47;;;10.53;100.00
8140;BME280;4111;50.972;7.072;2023-03-14T11:40:02;99134.22;;;10.68;100.00
8140;BME280;4111;50.972;7.072;2023-03-14T11:42:33;99145.47;;;10.56;100.00
8140;BME280;4111;50.972;7.072;2023-03-14T11:45:00;99181.81;;;10.21;100.00
8140;BME280;4111;50.972;7.072;2023-03-14T11:47:34;99189.69;;;9.78;100.00
8140;BME280;4111;50.972;7.072;2023-03-14T11:50:16;99201.13;;;9.59;100.00
8140;BME280;4111;50.972;7.072;2023-03-14T11:52:56;99203.38;;;9.42;100.00
8140;BME280;4111;50.972;7.072;2023-03-14T11:55:34;99224.81;;;9.38;100.00
8140;BME280;4111;50.972;7.072;2023-03-14T11:58:11;99222.63;;;9.30;100.00
8140;BME280;4111;50.972;7.072;2023-03-14T12:00:38;99226.72;;;9.27;100.00
8140;BME280;4111;50.972;7.072;2023-03-14T12:03:17;99238.63;;;9.31;100.00
8140;BME280;4111;50.972;7.072;2023-03-14T12:08:52;99253.28;;;9.15;100.00
8140;BME280;4111;50.972;7.072;2023-03-14T12:11:21;99273.06;;;9.10;100.00
8140;BME280;4111;50.972;7.072;2023-03-14T12:13:52;99285.81;;;8.95;100.00
8140;BME280;4111;50.972;7.072;2023-03-14T12:18:54;99316.09;;;8.76;100.00
8140;BME280;4111;50.972;7.072;2023-03-14T12:21:20;99330.16;;;8.78;100.00
8140;BME280;4111;50.972;7.072;2023-03-14T12:23:50;99332.91;;;8.83;100.00
8140;BME280;4111;50.972;7.072;2023-03-14T12:26:24;99335.88;;;8.92;100.00
8140;BME280;4111;50.972;7.072;2023-03-14T12:31:36;99357.25;;;9.04;100.00
8140;BME280;4111;50.972;7.072;2023-03-14T12:42:05;99392.69;;;9.79;100.00
8140;BME280;4111;50.972;7.072;2023-03-14T12:44:44;99410.88;;;9.73;99.20
8140;BME280;4111;50.972;7.072;2023-03-14T12:49:48;99422.81;;;9.47;97.29
8140;BME280;4111;50.972;7.072;2023-03-14T12:52:19;99430.94;;;9.31;96.57
8140;BME280;4111;50.972;7.072;2023-03-14T12:54:49;99439.03;;;9.16;95.94
8140;BME280;4111;50.972;7.072;2023-03-14T13:00:02;99461.50;;;9.06;95.31
8140;BME280;4111;50.972;7.072;2023-03-14T13:02:43;99467.97;;;9.00;94.70
8140;BME280;4111;50.972;7.072;2023-03-14T13:05:14;99481.25;;;9.02;94.84
8140;BME280;4111;50.972;7.072;2023-03-14T13:15:42;99491.56;;;9.05;93.71
8140;BME280;4111;50.972;7.072;2023-03-14T13:18:12;99496.41;;;9.08;93.62
8140;BME280;4111;50.972;7.072;2023-03-14T13:20:46;99503.72;;;9.02;92.50
8140;BME280;4111;50.972;7.072;2023-03-14T13:23:28;99515.38;;;9.03;91.40
8140;BME280;4111;50.972;7.072;2023-03-14T13:25:56;99518.63;;;9.05;91.15
8140;BME280;4111;50.972;7.072;2023-03-14T13:28:23;99527.31;;;9.07;90.29
8140;BME280;4111;50.972;7.072;2023-03-14T13:30:55;99529.53;;;9.36;90.62
8140;BME280;4111;50.972;7.072;2023-03-14T13:33:23;99529.56;;;9.46;90.75
8140;BME280;4111;50.972;7.072;2023-03-14T13:36:01;99531.72;;;9.39;90.19
8140;BME280;4111;50.972;7.072;2023-03-14T13:38:32;99546.84;;;9.29;90.32
8140;BME280;4111;50.972;7.072;2023-03-14T13:41:00;99560.38;;;9.19;90.08
8140;BME280;4111;50.972;7.072;2023-03-14T13:43:32;99563.03;;;9.09;90.20
8140;BME280;4111;50.972;7.072;2023-03-14T13:48:43;99591.63;;;8.84;89.77
8140;BME280;4111;50.972;7.072;2023-03-14T13:51:13;99603.97;;;8.65;88.98
8140;BME280;4111;50.972;7.072;2023-03-14T13:53:48;99624.50;;;8.56;89.61
8140;BME280;4111;50.972;7.072;2023-03-14T13:56:17;99628.91;;;8.67;89.79
8140;BME280;4111;50.972;7.072;2023-03-14T13:58:45;99633.78;;;8.70;90.15
8140;BME280;4111;50.972;7.072;2023-03-14T14:01:15;99631.03;;;8.65;89.67
8140;BME280;4111;50.972;7.072;2023-03-14T14:03:45;99639.22;;;8.75;90.15
8140;BME280;4111;50.972;7.072;2023-03-14T14:09:02;99652.25;;;8.83;90.48
8140;BME280;4111;50.972;7.072;2023-03-14T14:11:48;99653.47;;;9.03;90.94
8140;BME280;4111;50.972;7.072;2023-03-14T14:14:40;99660.06;;;9.22;90.37
8140;BME280;4111;50.972;7.072;2023-03-14T14:17:12;99656.31;;;9.44;90.10
8140;BME280;4111;50.972;7.072;2023-03-14T14:19:41;99666.66;;;9.47;89.54
8140;BME280;4111;50.972;7.072;2023-03-14T14:22:09;99671.78;;;9.43;89.59
8140;BME280;4111;50.972;7.072;2023-03-14T14:24:37;99683.88;;;9.25;88.83
8140;BME280;4111;50.972;7.072;2023-03-14T14:27:19;99692.72;;;9.05;88.25